Portada
METAR-TAF:

METAR-TAF

Aeroports :

Mfuwe, Zàmbia

latitud: 13-15-32S, longitud: 031-56-12E, altitud: 573 m

METAR: manca

Hora: 11:13 (09:13 UTC)

Pronòstic

L'informe es va fer fa 5 hores i 13 minuts, a les 04:00 UTC
Pronòstic vàlid del 02 a les 06 UTC al 03 a les 12 UTC
Vent 10 kt del Sud/Sud-Est
Visibilitat 10 km o més
Núvols disperses a una alçada de 1500 ft
Evolucionant progressivament
l' 02 a les 10 UTC al 02 a les 12 UTC
Vent 5 kt del Sud amb ràfegues de 10 kt
Cel ennuvolat a una alçada de 3500 ft
Evolucionant progressivament
l' 02 a les 14 UTC al 02 a les 16 UTC
Visibilitat 10 km o més
sense núvols per sota de 1500 mi sense presència de cumulonimbus.

TAF: FLMF 020400Z 0206/0312 15010KT 9999 SCT015 BECMG 0210/0212 17005G10KT BKN035 BECMG 0214/0216 CAVOK

Observacions i pronòstics meteorològics de més de 4000 aeroports (METAR i TAF).

Les estacions disponibles són els punts grocs i vermells al mapa.

Posi el ratolí al punt desitjat per veure el nom de l'estació.

Feu clic per veure les observacions i els pronòstics meteorològics.

Per canviar el mapa: feu clic els botons verds amb una creu de color negre per apropar; al botó verd amb un guió per allunyar la imatge; o en les fletxes verdes per a mapes adjacents.


METAR-TAF: